Time;durP1;ratioP1;P1;durP2;ratioP2;P2;SDS_P1;SDS_P2;PMS_P1;PMS_P2;Temp;Humidity;BMP_temperature;BMP_pressure;BME280_temperature;BME280_humidity;BME280_pressure;Samples;Min_cycle;Max_cycle;Signal;HPM_P1;HPM_P2
2022/12/05 00:01:18;;;;;;;;;34.50;34.00;;;;;;;;5017204;28;45542;-83
2022/12/05 00:03:44;;;;;;;;;33.75;30.00;;;;;;;;5020845;28;45788;-82
2022/12/05 00:06:14;;;;;;;;;40.00;29.25;;;;;;;;5021798;28;45316;-83
2022/12/05 00:08:40;;;;;;;;;40.00;35.00;;;;;;;;5022007;28;45579;-83
2022/12/05 00:11:10;;;;;;;;;40.50;35.75;;;;;;;;5021352;28;45533;-82
2022/12/05 00:14:16;;;;;;;;;46.25;38.00;;;;;;;;5013467;28;44785;-83
2022/12/05 00:16:34;;;;;;;;;41.50;34.25;;;;;;;;5030817;28;45770;-83
2022/12/05 00:19:13;;;;;;;;;;;;;;;;;;;;;
2022/12/05 00:22:02;;;;;;;;;;;;;;;;;;;;;
2022/12/05 00:33:19;;;;;;;;;46.50;34.75;;;;;;;;4994769;28;46037;-64
2022/12/05 00:35:44;;;;;;;;;39.50;30.00;;;;;;;;4974912;28;45413;-65
2022/12/05 00:38:10;;;;;;;;;38.00;32.50;;;;;;;;4972138;28;45698;-65
2022/12/05 00:40:35;;;;;;;;;43.25;36.50;;;;;;;;4993935;28;45675;-65
2022/12/05 00:43:01;;;;;;;;;39.75;31.75;;;;;;;;4973291;28;46892;-65
2022/12/05 00:45:26;;;;;;;;;45.75;35.50;;;;;;;;4990066;28;45299;-64
2022/12/05 00:47:51;;;;;;;;;39.25;35.00;;;;;;;;5013010;28;45794;-64
2022/12/05 00:50:16;;;;;;;;;37.50;31.75;;;;;;;;4990233;28;45432;-64
2022/12/05 00:52:42;;;;;;;;;44.00;34.75;;;;;;;;5000727;28;46192;-64
2022/12/05 00:55:07;;;;;;;;;37.00;33.00;;;;;;;;4980703;28;45299;-65
2022/12/05 00:57:32;;;;;;;;;41.50;33.50;;;;;;;;5000853;28;45289;-66
2022/12/05 00:59:58;;;;;;;;;37.00;28.00;;;;;;;;4989595;28;45708;-66
2022/12/05 01:02:23;;;;;;;;;37.50;30.00;;;;;;;;4998921;28;46762;-64
2022/12/05 01:04:48;;;;;;;;;48.75;31.50;;;;;;;;4989465;28;45497;-64
2022/12/05 01:07:13;;;;;;;;;48.00;31.00;;;;;;;;4996903;28;45358;-65
2022/12/05 01:09:39;;;;;;;;;37.00;33.50;;;;;;;;4995213;28;45853;-64
2022/12/05 01:12:04;;;;;;;;;48.00;37.00;;;;;;;;4994467;28;45342;-65
2022/12/05 01:14:29;;;;;;;;;48.00;36.75;;;;;;;;4993105;28;45411;-65
2022/12/05 01:16:55;;;;;;;;;37.75;34.75;;;;;;;;4994138;28;45816;-64
2022/12/05 01:19:25;;;;;;;;;51.00;37.00;;;;;;;;5004975;28;45474;-65
2022/12/05 01:21:50;;;;;;;;;44.00;37.00;;;;;;;;4986708;28;45358;-65
2022/12/05 01:24:17;;;;;;;;;33.00;31.00;;;;;;;;4995085;28;45674;-65
2022/12/05 01:26:44;;;;;;;;;47.00;37.00;;;;;;;;4987348;28;47072;-65
2022/12/05 01:29:11;;;;;;;;;43.00;34.75;;;;;;;;4993016;28;45612;-65
2022/12/05 01:31:36;;;;;;;;;46.25;38.00;;;;;;;;4988549;28;45634;-65
2022/12/05 01:34:03;;;;;;;;;49.75;33.75;;;;;;;;4994981;28;45427;-65
2022/12/05 01:36:28;;;;;;;;;43.75;36.50;;;;;;;;4966392;28;45666;-64
2022/12/05 01:38:54;;;;;;;;;32.25;31.25;;;;;;;;4993181;28;45671;-65
2022/12/05 01:41:22;;;;;;;;;40.50;34.75;;;;;;;;4989779;28;46516;-65
2022/12/05 01:44:11;;;;;;;;;50.00;37.50;;;;;;;;4978200;28;45324;-65
2022/12/05 01:46:47;;;;;;;;;46.75;36.50;;;;;;;;4963775;28;45508;-65
2022/12/05 01:49:15;;;;;;;;;38.50;36.25;;;;;;;;4980603;28;45614;-65
2022/12/05 01:51:45;;;;;;;;;46.75;37.50;;;;;;;;4975442;28;48551;-65
2022/12/05 01:54:11;;;;;;;;;37.75;34.25;;;;;;;;4986514;28;45508;-65
2022/12/05 01:56:38;;;;;;;;;51.50;34.75;;;;;;;;4957932;28;45464;-65
2022/12/05 01:59:05;;;;;;;;;41.00;35.25;;;;;;;;4987355;28;46045;-64
2022/12/05 02:01:31;;;;;;;;;43.25;34.25;;;;;;;;4986321;28;45449;-66
2022/12/05 02:03:57;;;;;;;;;34.75;27.25;;;;;;;;4992146;28;45475;-65
2022/12/05 02:06:23;;;;;;;;;45.50;35.00;;;;;;;;4993144;28;45573;-64
2022/12/05 02:08:50;;;;;;;;;39.50;36.00;;;;;;;;4986554;28;45556;-65
2022/12/05 02:11:16;;;;;;;;;39.75;36.00;;;;;;;;4981890;28;46219;-64
2022/12/05 02:13:41;;;;;;;;;44.25;35.25;;;;;;;;4974590;28;45400;-64
2022/12/05 02:16:25;;;;;;;;;35.50;32.75;;;;;;;;4990203;28;45340;-63
2022/12/05 02:18:53;;;;;;;;;42.50;34.00;;;;;;;;4990178;28;45826;-65
2022/12/05 02:21:24;;;;;;;;;46.00;36.75;;;;;;;;4987477;28;46565;-64
2022/12/05 02:24:09;;;;;;;;;41.50;30.25;;;;;;;;4983601;28;45817;-65
2022/12/05 02:26:52;;;;;;;;;41.00;32.75;;;;;;;;4987614;28;45665;-66
2022/12/05 02:29:36;;;;;;;;;41.50;33.75;;;;;;;;4987249;28;45288;-64
2022/12/05 02:32:04;;;;;;;;;44.00;35.00;;;;;;;;4987997;28;45754;-65
2022/12/05 02:34:41;;;;;;;;;45.00;37.00;;;;;;;;4987300;28;45281;-64
2022/12/05 02:37:10;;;;;;;;;46.50;37.00;;;;;;;;4987284;28;45851;-64
2022/12/05 02:39:50;;;;;;;;;47.75;37.75;;;;;;;;4963219;28;47043;-64
2022/12/05 02:42:38;;;;;;;;;42.00;34.00;;;;;;;;4991961;28;45688;-64
2022/12/05 02:45:08;;;;;;;;;45.75;36.50;;;;;;;;4983093;28;45432;-67
2022/12/05 02:47:36;;;;;;;;;48.50;35.75;;;;;;;;4991633;28;45341;-64
2022/12/05 02:50:02;;;;;;;;;54.25;40.50;;;;;;;;4991761;28;46072;-64
2022/12/05 02:52:29;;;;;;;;;53.25;38.50;;;;;;;;4991343;28;45426;-65
2022/12/05 02:54:55;;;;;;;;;53.00;39.50;;;;;;;;5000631;28;45471;-64
2022/12/05 02:57:21;;;;;;;;;50.50;38.00;;;;;;;;4989445;28;45799;-64
2022/12/05 02:59:46;;;;;;;;;50.50;40.50;;;;;;;;4983684;28;45609;-65
2022/12/05 03:02:25;;;;;;;;;51.25;40.00;;;;;;;;4990895;28;45971;-66
2022/12/05 03:04:51;;;;;;;;;43.00;32.00;;;;;;;;4990163;28;45532;-64
2022/12/05 03:07:19;;;;;;;;;53.75;39.00;;;;;;;;4968522;28;45430;-66
2022/12/05 03:09:55;;;;;;;;;49.50;38.50;;;;;;;;4973508;28;45718;-65
2022/12/05 03:12:23;;;;;;;;;55.25;38.00;;;;;;;;4989406;28;46071;-65
2022/12/05 03:15:01;;;;;;;;;49.75;37.75;;;;;;;;4991896;28;45776;-65
2022/12/05 03:17:32;;;;;;;;;51.00;38.50;;;;;;;;4991578;28;45778;-65
2022/12/05 03:20:16;;;;;;;;;41.00;31.50;;;;;;;;4984289;28;45353;-65
2022/12/05 03:22:48;;;;;;;;;50.50;39.25;;;;;;;;4988016;28;45365;-65
2022/12/05 03:25:15;;;;;;;;;47.25;37.25;;;;;;;;4981102;28;45800;-65
2022/12/05 03:27:48;;;;;;;;;54.75;39.25;;;;;;;;4996091;28;45507;-67
2022/12/05 03:30:15;;;;;;;;;52.50;40.00;;;;;;;;4991172;28;45991;-65
2022/12/05 03:32:54;;;;;;;;;53.50;39.75;;;;;;;;4990434;28;45739;-65
2022/12/05 03:35:19;;;;;;;;;51.75;38.50;;;;;;;;4980858;28;45726;-66
2022/12/05 03:37:54;;;;;;;;;50.75;37.25;;;;;;;;4992599;28;45695;-64
2022/12/05 03:40:31;;;;;;;;;49.25;37.75;;;;;;;;4977141;28;45608;-64
2022/12/05 03:43:01;;;;;;;;;43.50;36.75;;;;;;;;4991775;28;45736;-66
2022/12/05 03:45:30;;;;;;;;;51.75;40.00;;;;;;;;4990472;28;45657;-65
2022/12/05 03:48:03;;;;;;;;;49.50;40.25;;;;;;;;4991116;28;45605;-64
2022/12/05 03:50:29;;;;;;;;;56.25;40.50;;;;;;;;4973042;28;46220;-66
2022/12/05 03:53:10;;;;;;;;;52.00;40.75;;;;;;;;4996702;28;45782;-64
2022/12/05 03:55:37;;;;;;;;;52.25;37.75;;;;;;;;4997500;28;45521;-64
2022/12/05 03:58:12;;;;;;;;;60.50;43.50;;;;;;;;4983375;28;45441;-64
2022/12/05 04:00:40;;;;;;;;;48.75;39.00;;;;;;;;4989836;28;45423;-64
2022/12/05 04:03:08;;;;;;;;;47.25;39.25;;;;;;;;4991519;28;46648;-64
2022/12/05 04:05:46;;;;;;;;;53.50;41.50;;;;;;;;4971168;28;45473;-63
2022/12/05 04:08:37;;;;;;;;;52.75;38.00;;;;;;;;4986380;28;45550;-66
2022/12/05 04:11:09;;;;;;;;;52.25;38.50;;;;;;;;4983839;28;45552;-64
2022/12/05 04:13:45;;;;;;;;;48.00;37.75;;;;;;;;4983830;28;45401;-66
2022/12/05 04:19:08;;;;;;;;;47.50;38.25;;;;;;;;4991286;28;45455;-64
2022/12/05 04:21:37;;;;;;;;;53.50;40.75;;;;;;;;4990185;28;45742;-64
2022/12/05 04:26:52;;;;;;;;;43.00;37.25;;;;;;;;4983482;28;45372;-65
2022/12/05 04:29:41;;;;;;;;;58.75;40.75;;;;;;;;4987602;28;45548;-65
2022/12/05 04:32:08;;;;;;;;;54.50;40.00;;;;;;;;4973657;28;45362;-64
2022/12/05 04:37:11;;;;;;;;;45.50;36.50;;;;;;;;5059502;22;45789;-71
2022/12/05 04:40:03;;;;;;;;;53.25;38.25;;;;;;;;5034398;28;45694;-70
2022/12/05 04:42:31;;;;;;;;;47.25;39.75;;;;;;;;5012440;28;45795;-70
2022/12/05 04:45:00;;;;;;;;;49.50;37.25;;;;;;;;5024948;28;45452;-71
2022/12/05 04:47:30;;;;;;;;;48.50;36.75;;;;;;;;5026370;28;45512;-70
2022/12/05 04:49:57;;;;;;;;;48.00;36.50;;;;;;;;5018017;28;45510;-70
2022/12/05 04:52:22;;;;;;;;;50.00;37.75;;;;;;;;5026530;28;47021;-71
2022/12/05 04:54:52;;;;;;;;;51.50;39.00;;;;;;;;5013546;28;45624;-69
2022/12/05 04:57:20;;;;;;;;;45.75;37.75;;;;;;;;5029060;28;45689;-70
2022/12/05 04:59:46;;;;;;;;;43.00;35.25;;;;;;;;5028245;28;45541;-71
2022/12/05 05:02:13;;;;;;;;;44.50;35.25;;;;;;;;5028175;28;45650;-71
2022/12/05 05:04:42;;;;;;;;;55.00;40.25;;;;;;;;5006011;28;48245;-71
2022/12/05 05:07:09;;;;;;;;;48.25;34.50;;;;;;;;5012961;28;46855;-70
2022/12/05 05:09:35;;;;;;;;;44.00;35.25;;;;;;;;5023881;28;45413;-69
2022/12/05 05:12:00;;;;;;;;;54.00;38.25;;;;;;;;5002856;28;46581;-72
2022/12/05 05:14:25;;;;;;;;;48.25;37.00;;;;;;;;5026756;28;45786;-70
2022/12/05 05:16:51;;;;;;;;;42.75;37.75;;;;;;;;5024602;28;45761;-70
2022/12/05 05:19:16;;;;;;;;;42.75;35.75;;;;;;;;5030160;28;45717;-70
2022/12/05 05:21:41;;;;;;;;;46.75;36.75;;;;;;;;5028704;28;45435;-69
2022/12/05 05:24:08;;;;;;;;;53.75;38.50;;;;;;;;5033329;28;46475;-69
2022/12/05 05:26:35;;;;;;;;;45.00;37.75;;;;;;;;5021185;28;45880;-70
2022/12/05 05:29:01;;;;;;;;;56.50;38.50;;;;;;;;5017777;28;45755;-71
2022/12/05 05:31:26;;;;;;;;;47.75;37.50;;;;;;;;5013382;28;45405;-70
2022/12/05 05:33:53;;;;;;;;;55.00;40.25;;;;;;;;5014816;28;46142;-71
2022/12/05 05:36:19;;;;;;;;;44.75;36.50;;;;;;;;5015162;28;45434;-68
2022/12/05 05:38:45;;;;;;;;;51.25;38.50;;;;;;;;5018342;28;45624;-70
2022/12/05 05:41:15;;;;;;;;;43.00;36.75;;;;;;;;5026701;28;45659;-70
2022/12/05 05:43:41;;;;;;;;;42.00;36.25;;;;;;;;5033037;28;46269;-74
2022/12/05 05:46:06;;;;;;;;;45.00;35.75;;;;;;;;5027668;28;45236;-69
2022/12/05 05:48:32;;;;;;;;;47.25;37.50;;;;;;;;5026073;28;45572;-69
2022/12/05 05:50:58;;;;;;;;;42.00;35.75;;;;;;;;5023187;28;46063;-69
2022/12/05 05:53:23;;;;;;;;;47.75;38.00;;;;;;;;5006800;28;47089;-72
2022/12/05 05:55:48;;;;;;;;;46.75;37.00;;;;;;;;5026871;28;45733;-71
2022/12/05 05:58:13;;;;;;;;;45.00;37.25;;;;;;;;5032180;28;45616;-71
2022/12/05 06:00:39;;;;;;;;;46.50;36.50;;;;;;;;5027476;28;45776;-69
2022/12/05 06:03:04;;;;;;;;;45.75;36.50;;;;;;;;5023102;28;45728;-70
2022/12/05 06:05:29;;;;;;;;;46.00;35.00;;;;;;;;5028019;28;45353;-70
2022/12/05 06:07:55;;;;;;;;;42.50;37.00;;;;;;;;5031577;28;45506;-70
2022/12/05 06:10:20;;;;;;;;;44.25;34.00;;;;;;;;5023349;28;45804;-73
2022/12/05 06:12:45;;;;;;;;;39.75;36.00;;;;;;;;5026351;28;46800;-74
2022/12/05 06:15:11;;;;;;;;;40.25;33.75;;;;;;;;5023197;28;45773;-71
2022/12/05 06:17:36;;;;;;;;;49.25;37.75;;;;;;;;5015431;28;45493;-72
2022/12/05 06:20:01;;;;;;;;;43.25;36.50;;;;;;;;5023170;28;45449;-73
2022/12/05 06:22:26;;;;;;;;;41.75;34.00;;;;;;;;5031419;28;45908;-75
2022/12/05 06:24:52;;;;;;;;;41.25;33.50;;;;;;;;5041706;28;45478;-73
2022/12/05 06:27:17;;;;;;;;;47.50;37.50;;;;;;;;5024819;28;45413;-78
2022/12/05 06:29:42;;;;;;;;;41.25;33.00;;;;;;;;5027382;28;45506;-75
2022/12/05 06:32:08;;;;;;;;;55.75;39.75;;;;;;;;5022187;28;47762;-72
2022/12/05 06:34:34;;;;;;;;;44.75;36.75;;;;;;;;5024734;28;45539;-73
2022/12/05 06:36:59;;;;;;;;;57.50;45.25;;;;;;;;5006763;28;45576;-75
2022/12/05 06:39:25;;;;;;;;;42.25;35.00;;;;;;;;5006151;28;46092;-72
2022/12/05 06:41:50;;;;;;;;;40.50;29.00;;;;;;;;5005909;28;45754;-74
2022/12/05 06:44:15;;;;;;;;;51.25;37.75;;;;;;;;5003817;28;45911;-74
2022/12/05 06:46:41;;;;;;;;;40.75;31.50;;;;;;;;5005355;28;45319;-74
2022/12/05 06:49:06;;;;;;;;;41.50;34.25;;;;;;;;5005226;28;45644;-74
2022/12/05 06:51:31;;;;;;;;;42.00;34.25;;;;;;;;5013575;28;45602;-71
2022/12/05 06:53:56;;;;;;;;;39.25;32.75;;;;;;;;5010866;28;44832;-73
2022/12/05 06:56:22;;;;;;;;;41.75;34.75;;;;;;;;5010354;28;45864;-76
2022/12/05 06:58:48;;;;;;;;;43.25;34.25;;;;;;;;5009186;28;45359;-74
2022/12/05 07:04:03;;;;;;;;;42.25;33.25;;;;;;;;5014063;28;45374;-75
2022/12/05 07:06:28;;;;;;;;;38.50;30.75;;;;;;;;4997651;28;45645;-72
2022/12/05 07:08:53;;;;;;;;;54.00;40.00;;;;;;;;5015071;28;45454;-74
2022/12/05 07:11:19;;;;;;;;;35.00;31.25;;;;;;;;5009047;28;45762;-74
2022/12/05 07:13:44;;;;;;;;;49.50;36.50;;;;;;;;5002658;28;45712;-73
2022/12/05 07:16:09;;;;;;;;;42.50;33.50;;;;;;;;5002543;28;45782;-74
2022/12/05 07:18:35;;;;;;;;;46.25;35.00;;;;;;;;5003491;28;45556;-72
2022/12/05 07:21:04;;;;;;;;;40.75;34.50;;;;;;;;5001728;28;45331;-74
2022/12/05 07:23:29;;;;;;;;;42.00;36.75;;;;;;;;5001643;28;45720;-72
2022/12/05 07:25:56;;;;;;;;;45.75;37.50;;;;;;;;5004323;28;45778;-73
2022/12/05 07:28:22;;;;;;;;;48.50;34.50;;;;;;;;5009817;28;45901;-73
2022/12/05 07:30:47;;;;;;;;;51.00;36.75;;;;;;;;5127867;22;47645;-73
2022/12/05 07:33:12;;;;;;;;;45.25;37.25;;;;;;;;5045398;28;45746;-72
2022/12/05 07:35:37;;;;;;;;;51.25;37.25;;;;;;;;5058658;28;46005;-73
2022/12/05 07:38:03;;;;;;;;;54.25;37.25;;;;;;;;5030397;28;47129;-71
2022/12/05 07:40:28;;;;;;;;;49.00;39.25;;;;;;;;5043631;28;46079;-71
2022/12/05 07:42:53;;;;;;;;;54.75;35.50;;;;;;;;5046674;28;45790;-71
2022/12/05 07:45:21;;;;;;;;;54.25;41.00;;;;;;;;5049621;28;45702;-74
2022/12/05 07:47:46;;;;;;;;;57.50;41.50;;;;;;;;5049879;28;45970;-74
2022/12/05 07:50:12;;;;;;;;;46.75;37.00;;;;;;;;5037387;28;45942;-74
2022/12/05 07:52:38;;;;;;;;;49.25;37.00;;;;;;;;5032307;28;45698;-73
2022/12/05 07:55:03;;;;;;;;;48.50;39.75;;;;;;;;5038393;28;45721;-73
2022/12/05 07:57:29;;;;;;;;;49.75;40.75;;;;;;;;5045158;28;45388;-75
2022/12/05 07:59:55;;;;;;;;;51.75;35.50;;;;;;;;5050571;28;46256;-77
2022/12/05 08:02:20;;;;;;;;;52.75;37.75;;;;;;;;5049552;28;45762;-73
2022/12/05 08:04:45;;;;;;;;;53.25;39.00;;;;;;;;5050358;28;45572;-72
2022/12/05 08:07:10;;;;;;;;;46.50;39.25;;;;;;;;5034268;28;45804;-73
2022/12/05 08:09:36;;;;;;;;;47.00;38.75;;;;;;;;5040708;28;45609;-72
2022/12/05 08:12:01;;;;;;;;;51.00;40.25;;;;;;;;5044213;28;45726;-71
2022/12/05 08:14:26;;;;;;;;;47.00;37.50;;;;;;;;5050797;28;45483;-74
2022/12/05 08:16:52;;;;;;;;;52.00;39.50;;;;;;;;5052887;28;45575;-72
2022/12/05 08:19:17;;;;;;;;;55.00;40.25;;;;;;;;5034300;28;48343;-74
2022/12/05 08:21:43;;;;;;;;;43.25;37.25;;;;;;;;5037439;28;45646;-72
2022/12/05 08:24:08;;;;;;;;;62.75;45.75;;;;;;;;5043336;28;45693;-72
2022/12/05 08:26:35;;;;;;;;;56.75;45.75;;;;;;;;5040464;28;45793;-73
2022/12/05 08:29:01;;;;;;;;;44.00;36.25;;;;;;;;5037093;28;45776;-74
2022/12/05 08:31:28;;;;;;;;;56.75;42.50;;;;;;;;5037596;28;45491;-73
2022/12/05 08:33:55;;;;;;;;;55.50;41.75;;;;;;;;5047482;28;45475;-72
2022/12/05 08:36:20;;;;;;;;;51.50;40.75;;;;;;;;5061825;28;45646;-73
2022/12/05 08:38:46;;;;;;;;;53.50;40.25;;;;;;;;5054078;28;45465;-72
2022/12/05 08:41:12;;;;;;;;;56.50;42.50;;;;;;;;5054713;28;45798;-75
2022/12/05 08:43:38;;;;;;;;;51.75;39.50;;;;;;;;5054616;28;45634;-74
2022/12/05 08:46:03;;;;;;;;;51.75;38.75;;;;;;;;5066676;28;45568;-75
2022/12/05 08:48:29;;;;;;;;;55.75;40.50;;;;;;;;5054196;28;46012;-72
2022/12/05 08:50:55;;;;;;;;;45.50;37.50;;;;;;;;5055233;28;45471;-74
2022/12/05 08:53:20;;;;;;;;;47.50;37.00;;;;;;;;5052546;28;45302;-74
2022/12/05 08:55:45;;;;;;;;;54.00;41.75;;;;;;;;5061147;28;45541;-73
2022/12/05 08:58:11;;;;;;;;;63.50;48.00;;;;;;;;5056272;28;45630;-73
2022/12/05 09:00:37;;;;;;;;;52.25;40.75;;;;;;;;5052225;28;45419;-75
2022/12/05 09:03:02;;;;;;;;;63.00;44.50;;;;;;;;5050884;28;45702;-73
2022/12/05 09:05:28;;;;;;;;;50.25;38.00;;;;;;;;5055414;28;46164;-73
2022/12/05 09:07:53;;;;;;;;;54.00;40.75;;;;;;;;5037056;28;46940;-72
2022/12/05 09:10:18;;;;;;;;;54.75;38.50;;;;;;;;5054411;28;45638;-73
2022/12/05 09:12:43;;;;;;;;;57.75;40.25;;;;;;;;5037048;28;45644;-73
2022/12/05 09:15:10;;;;;;;;;48.75;37.00;;;;;;;;5055434;28;45310;-74
2022/12/05 09:17:36;;;;;;;;;57.75;45.75;;;;;;;;5063853;28;46040;-73
2022/12/05 09:20:01;;;;;;;;;49.75;39.75;;;;;;;;5061391;28;45507;-74
2022/12/05 09:22:26;;;;;;;;;66.75;48.25;;;;;;;;5055301;28;45435;-72
2022/12/05 09:24:52;;;;;;;;;60.50;44.75;;;;;;;;5054703;28;45704;-74
2022/12/05 09:27:17;;;;;;;;;54.25;39.50;;;;;;;;5048679;28;46173;-73
2022/12/05 09:29:42;;;;;;;;;52.75;39.00;;;;;;;;5061419;28;45634;-73
2022/12/05 09:32:08;;;;;;;;;54.50;41.50;;;;;;;;5047994;28;45508;-74
2022/12/05 09:34:33;;;;;;;;;54.00;39.50;;;;;;;;5058997;28;45367;-72
2022/12/05 09:37:00;;;;;;;;;48.75;39.75;;;;;;;;5054193;28;45507;-72
2022/12/05 09:39:26;;;;;;;;;50.25;38.50;;;;;;;;5058849;28;46471;-72
2022/12/05 09:42:08;;;;;;;;;48.75;36.00;;;;;;;;5054141;28;45651;-73
2022/12/05 09:44:52;;;;;;;;;45.75;35.50;;;;;;;;5059716;28;45803;-74
2022/12/05 09:47:37;;;;;;;;;47.00;37.50;;;;;;;;5059892;28;45399;-73
2022/12/05 09:50:17;;;;;;;;;48.50;36.50;;;;;;;;5053368;28;45670;-74
2022/12/05 09:52:48;;;;;;;;;53.00;40.75;;;;;;;;5061657;28;45731;-73
2022/12/05 09:55:15;;;;;;;;;44.75;35.50;;;;;;;;5051279;28;45813;-73
2022/12/05 09:57:47;;;;;;;;;44.75;38.50;;;;;;;;5052765;28;45488;-73
2022/12/05 10:00:13;;;;;;;;;54.00;42.50;;;;;;;;5053565;28;45746;-74
2022/12/05 10:02:57;;;;;;;;;51.25;39.25;;;;;;;;5019776;28;45668;-74
2022/12/05 10:05:35;;;;;;;;;53.25;40.00;;;;;;;;5042234;28;45479;-73
2022/12/05 10:08:03;;;;;;;;;52.25;38.50;;;;;;;;5053480;28;46288;-74
2022/12/05 10:10:32;;;;;;;;;46.50;35.50;;;;;;;;5033830;28;45389;-75
2022/12/05 10:12:57;;;;;;;;;56.50;43.00;;;;;;;;5051415;28;45746;-74
2022/12/05 10:15:26;;;;;;;;;52.50;42.00;;;;;;;;5050379;28;45658;-74
2022/12/05 10:17:56;;;;;;;;;54.50;39.25;;;;;;;;5044816;28;46470;-74
2022/12/05 10:20:27;;;;;;;;;58.25;43.75;;;;;;;;5027207;28;46198;-74
2022/12/05 10:22:59;;;;;;;;;56.00;41.25;;;;;;;;5033897;28;45887;-74
2022/12/05 10:25:26;;;;;;;;;58.50;42.25;;;;;;;;5052850;28;45347;-73
2022/12/05 10:27:57;;;;;;;;;55.75;40.00;;;;;;;;5049992;28;46038;-75
2022/12/05 10:30:24;;;;;;;;;60.50;44.25;;;;;;;;5035095;28;45533;-74
2022/12/05 10:32:56;;;;;;;;;48.25;39.00;;;;;;;;5053378;28;45542;-73
2022/12/05 10:35:23;;;;;;;;;54.50;41.00;;;;;;;;5061107;28;45495;-74
2022/12/05 10:37:57;;;;;;;;;55.25;43.00;;;;;;;;5052572;28;46367;-72
2022/12/05 10:40:25;;;;;;;;;53.50;42.50;;;;;;;;5052301;28;45767;-73
2022/12/05 10:42:50;;;;;;;;;57.25;40.25;;;;;;;;5052869;28;46009;-73
2022/12/05 10:45:21;;;;;;;;;54.75;43.25;;;;;;;;5056226;28;45467;-73
2022/12/05 10:47:47;;;;;;;;;58.50;43.75;;;;;;;;5053110;28;45878;-74
2022/12/05 10:50:16;;;;;;;;;47.00;36.25;;;;;;;;5050670;28;45561;-74
2022/12/05 10:52:42;;;;;;;;;53.00;39.50;;;;;;;;5027762;28;45674;-74
2022/12/05 10:55:13;;;;;;;;;55.50;45.00;;;;;;;;5044926;28;45652;-75
2022/12/05 10:57:38;;;;;;;;;56.25;43.00;;;;;;;;5033839;28;46192;-75
2022/12/05 11:00:12;;;;;;;;;49.25;41.25;;;;;;;;5046950;28;45396;-75
2022/12/05 11:02:39;;;;;;;;;52.50;39.25;;;;;;;;5023358;28;45500;-75
2022/12/05 11:05:05;;;;;;;;;52.25;40.75;;;;;;;;5049514;28;45809;-74
2022/12/05 11:07:46;;;;;;;;;52.25;41.50;;;;;;;;5035296;28;46100;-75
2022/12/05 11:10:18;;;;;;;;;46.50;37.00;;;;;;;;5053296;28;45767;-74
2022/12/05 11:12:43;;;;;;;;;51.00;40.00;;;;;;;;5035664;28;45726;-74
2022/12/05 11:15:11;;;;;;;;;55.00;39.50;;;;;;;;5052972;28;45447;-75
2022/12/05 11:17:38;;;;;;;;;54.50;40.50;;;;;;;;5052023;28;45666;-75
2022/12/05 11:20:18;;;;;;;;;50.00;37.75;;;;;;;;5051273;28;45643;-74
2022/12/05 11:22:45;;;;;;;;;44.75;38.75;;;;;;;;5053425;28;45552;-75
2022/12/05 11:25:29;;;;;;;;;52.00;40.50;;;;;;;;5054261;28;45918;-72
2022/12/05 11:27:55;;;;;;;;;54.00;39.75;;;;;;;;5026924;28;45547;-74
2022/12/05 11:30:22;;;;;;;;;46.75;33.25;;;;;;;;5056347;28;45564;-74
2022/12/05 11:32:48;;;;;;;;;48.75;37.00;;;;;;;;5054710;28;45669;-75
2022/12/05 11:35:27;;;;;;;;;50.50;39.00;;;;;;;;5056652;28;45380;-73
2022/12/05 11:37:56;;;;;;;;;57.25;40.25;;;;;;;;5041501;28;46321;-74
2022/12/05 11:40:36;;;;;;;;;53.75;41.25;;;;;;;;5034161;28;45334;-74
2022/12/05 11:43:10;;;;;;;;;56.50;40.00;;;;;;;;5041855;28;45350;-74
2022/12/05 11:45:44;;;;;;;;;53.75;40.50;;;;;;;;5068872;28;45409;-75
2022/12/05 11:48:10;;;;;;;;;52.75;41.25;;;;;;;;5058943;28;46103;-76
2022/12/05 11:50:35;;;;;;;;;51.50;38.00;;;;;;;;5055664;28;45322;-74
2022/12/05 11:53:10;;;;;;;;;54.25;40.75;;;;;;;;5059692;28;45666;-75
2022/12/05 11:55:45;;;;;;;;;53.50;41.25;;;;;;;;5056345;28;45666;-73
2022/12/05 11:58:29;;;;;;;;;49.50;38.00;;;;;;;;5033531;28;48066;-74
2022/12/05 12:01:13;;;;;;;;;56.50;42.00;;;;;;;;5048778;28;45567;-74
2022/12/05 12:03:41;;;;;;;;;51.75;40.50;;;;;;;;5054124;28;45839;-74
2022/12/05 12:06:22;;;;;;;;;57.25;44.25;;;;;;;;5048748;28;45397;-73
2022/12/05 12:08:53;;;;;;;;;54.00;41.25;;;;;;;;5048454;28;46211;-73
2022/12/05 12:11:36;;;;;;;;;52.25;40.00;;;;;;;;5058403;28;45294;-73
2022/12/05 12:14:04;;;;;;;;;53.25;43.00;;;;;;;;5055556;28;45491;-72
2022/12/05 12:16:30;;;;;;;;;13.00;5.75;;;;;;;;5050354;28;45333;-72
2022/12/05 12:19:06;;;;;;;;;50.25;37.75;;;;;;;;5053152;28;45501;-71
2022/12/05 12:21:50;;;;;;;;;56.75;42.50;;;;;;;;5055101;28;45561;-71
2022/12/05 12:24:15;;;;;;;;;55.00;40.50;;;;;;;;5055495;28;45442;-70
2022/12/05 12:26:40;;;;;;;;;51.75;37.75;;;;;;;;5056191;28;45611;-77
2022/12/05 12:29:08;;;;;;;;;52.25;40.00;;;;;;;;5055963;28;45810;-72
2022/12/05 12:31:34;;;;;;;;;57.50;42.25;;;;;;;;5050431;28;45686;-75
2022/12/05 12:34:28;;;;;;;;;54.00;39.25;;;;;;;;5039837;28;45778;-75
2022/12/05 12:36:58;;;;;;;;;54.00;41.00;;;;;;;;4972740;28;46182;-74
2022/12/05 12:39:37;;;;;;;;;53.25;41.50;;;;;;;;5047331;28;45512;-73
2022/12/05 12:42:12;;;;;;;;;50.00;37.00;;;;;;;;5036975;28;45363;-75
2022/12/05 12:44:37;;;;;;;;;49.00;36.75;;;;;;;;5023263;28;45525;-72
2022/12/05 12:47:06;;;;;;;;;55.75;43.00;;;;;;;;5042944;28;46507;-73
2022/12/05 12:49:37;;;;;;;;;52.25;38.75;;;;;;;;5037278;28;46581;-72
2022/12/05 12:52:22;;;;;;;;;48.75;39.00;;;;;;;;5048728;28;45447;-72
2022/12/05 12:55:07;;;;;;;;;50.75;39.50;;;;;;;;5036118;28;45465;-73
2022/12/05 12:57:46;;;;;;;;;53.50;41.00;;;;;;;;5037710;28;45795;-71
2022/12/05 13:00:22;;;;;;;;;49.25;39.75;;;;;;;;5038144;28;45831;-72
2022/12/05 13:02:57;;;;;;;;;58.25;42.25;;;;;;;;5053244;28;46142;-72
2022/12/05 13:05:31;;;;;;;;;50.75;38.25;;;;;;;;5041422;28;45438;-73
2022/12/05 13:08:00;;;;;;;;;41.25;33.50;;;;;;;;5024503;28;46051;-72
2022/12/05 13:10:34;;;;;;;;;48.50;38.50;;;;;;;;5034085;28;45628;-71
2022/12/05 13:13:01;;;;;;;;;55.75;44.25;;;;;;;;5031314;28;45973;-72
2022/12/05 13:15:32;;;;;;;;;54.00;40.75;;;;;;;;5044768;28;45759;-73
2022/12/05 13:17:58;;;;;;;;;39.75;33.25;;;;;;;;5039679;28;45784;-74
2022/12/05 13:20:26;;;;;;;;;45.00;38.00;;;;;;;;5042514;28;46583;-71
2022/12/05 13:22:53;;;;;;;;;52.25;37.75;;;;;;;;5050045;28;45867;-72
2022/12/05 13:25:20;;;;;;;;;51.00;38.75;;;;;;;;5051384;28;45831;-72
2022/12/05 13:27:56;;;;;;;;;56.00;41.00;;;;;;;;5047666;28;45761;-71
2022/12/05 13:30:22;;;;;;;;;54.50;38.00;;;;;;;;5053058;28;45763;-72
2022/12/05 13:32:54;;;;;;;;;42.00;37.25;;;;;;;;5057144;28;45447;-73
2022/12/05 13:44:46;;;;;;;;;39.67;31.67;;;;;;;;5052661;28;45598;-73
2022/12/05 13:47:32;;;;;;;;;40.00;27.33;;;;;;;;5052006;28;45428;-74
2022/12/05 13:50:00;;;;;;;;;31.00;26.33;;;;;;;;5053739;28;45825;-75
2022/12/05 13:52:27;;;;;;;;;34.50;29.50;;;;;;;;5035654;28;47674;-72
2022/12/05 13:55:11;;;;;;;;;35.67;29.67;;;;;;;;5053084;28;45934;-76
2022/12/05 13:57:36;;;;;;;;;35.75;31.25;;;;;;;;5040445;28;45857;-74
2022/12/05 14:00:07;;;;;;;;;43.50;33.75;;;;;;;;5057011;28;45716;-76
2022/12/05 14:02:45;;;;;;;;;38.67;34.33;;;;;;;;5046064;28;46236;-76
2022/12/05 14:05:13;;;;;;;;;31.67;28.33;;;;;;;;5052073;28;45491;-78
2022/12/05 14:07:41;;;;;;;;;39.25;32.25;;;;;;;;5056482;28;45787;-75
2022/12/05 14:10:08;;;;;;;;;45.00;32.33;;;;;;;;5055685;28;45437;-76
2022/12/05 14:12:48;;;;;;;;;38.00;31.00;;;;;;;;5056138;28;45682;-76
2022/12/05 14:15:27;;;;;;;;;38.33;30.33;;;;;;;;5064981;28;46254;-76
2022/12/05 14:18:05;;;;;;;;;40.33;32.00;;;;;;;;5065836;28;45759;-76
2022/12/05 14:20:30;;;;;;;;;36.33;31.33;;;;;;;;5062766;28;45534;-75
2022/12/05 14:23:07;;;;;;;;;35.00;29.67;;;;;;;;5064075;28;46507;-76
2022/12/05 14:25:40;;;;;;;;;34.00;29.67;;;;;;;;5070147;28;45735;-74
2022/12/05 14:28:18;;;;;;;;;36.00;33.33;;;;;;;;5065252;28;45755;-77
2022/12/05 14:30:49;;;;;;;;;33.00;29.33;;;;;;;;5068411;28;45484;-77
2022/12/05 14:33:16;;;;;;;;;29.67;25.67;;;;;;;;5045143;28;45420;-76
2022/12/05 14:35:45;;;;;;;;;35.75;31.00;;;;;;;;5063053;28;45589;-78
2022/12/05 14:38:27;;;;;;;;;37.75;31.00;;;;;;;;5060155;28;45460;-76
2022/12/05 14:40:52;;;;;;;;;32.00;27.25;;;;;;;;5059376;28;45468;-78
2022/12/05 14:43:18;;;;;;;;;26.25;21.25;;;;;;;;5053543;28;45705;-77
2022/12/05 14:45:57;;;;;;;;;36.50;30.25;;;;;;;;5056243;28;45533;-78
2022/12/05 14:48:26;;;;;;;;;36.50;27.75;;;;;;;;5056909;28;45359;-78
2022/12/05 14:50:53;;;;;;;;;30.00;25.33;;;;;;;;5051531;28;45486;-75
2022/12/05 14:53:31;;;;;;;;;35.67;28.67;;;;;;;;5059792;28;46387;-78
2022/12/05 14:55:56;;;;;;;;;44.33;33.00;;;;;;;;5035169;28;45857;-76
2022/12/05 14:58:24;;;;;;;;;37.67;30.67;;;;;;;;5050849;28;45717;-77
2022/12/05 15:01:13;;;;;;;;;37.75;31.00;;;;;;;;5060162;28;45655;-77